createdAt,value
2018-08-28T00:01:04.245Z,101180.66
2018-08-28T00:04:08.469Z,101193.42
2018-08-28T00:07:12.681Z,101184.09
2018-08-28T00:10:16.908Z,101194.14
2018-08-28T00:13:21.162Z,101193.56
2018-08-28T00:16:25.381Z,101202.20
2018-08-28T00:19:29.617Z,101208.50
2018-08-28T00:22:33.828Z,101211.70
2018-08-28T00:25:38.066Z,101207.84
2018-08-28T00:28:42.290Z,101208.69
2018-08-28T00:31:46.519Z,101220.66
2018-08-28T00:34:50.741Z,101218.72
2018-08-28T00:37:54.945Z,101223.52
2018-08-28T00:40:59.245Z,101222.92
2018-08-28T00:44:03.518Z,101228.06
2018-08-28T00:47:07.793Z,101233.76
2018-08-28T00:50:12.048Z,101236.44
2018-08-28T00:53:16.282Z,101240.16
2018-08-28T00:56:20.508Z,101239.34
2018-08-28T00:59:24.741Z,101244.48
2018-08-28T01:02:28.969Z,101248.81
2018-08-28T01:05:33.177Z,101247.69
2018-08-28T01:08:37.415Z,101253.09
2018-08-28T01:11:41.637Z,101252.19
2018-08-28T01:14:45.896Z,101255.91
2018-08-28T01:17:50.128Z,101265.88
2018-08-28T01:20:54.331Z,101267.91
2018-08-28T01:23:58.560Z,101264.50
2018-08-28T01:27:02.818Z,101275.59
2018-08-28T01:30:07.093Z,101271.67
2018-08-28T01:33:11.354Z,101273.70
2018-08-28T01:36:15.556Z,101274.39
2018-08-28T01:39:19.765Z,101280.86
2018-08-28T01:42:25.073Z,101272.28
2018-08-28T01:45:29.377Z,101276.84
2018-08-28T01:48:33.605Z,101289.25
2018-08-28T01:51:37.812Z,101293.80
2018-08-28T01:54:42.061Z,101290.26
2018-08-28T01:57:46.295Z,101293.28
2018-08-28T02:00:50.543Z,101292.44
2018-08-28T02:03:54.777Z,101305.56
2018-08-28T02:06:59.046Z,101302.54
2018-08-28T02:10:03.317Z,101306.86
2018-08-28T02:13:07.569Z,101309.81
2018-08-28T02:16:11.782Z,101318.20
2018-08-28T02:19:16.001Z,101317.25
2018-08-28T02:22:20.233Z,101322.64
2018-08-28T02:25:24.441Z,101316.58
2018-08-28T02:28:28.681Z,101315.14
2018-08-28T02:31:32.896Z,101323.78
2018-08-28T02:34:37.145Z,101319.62
2018-08-28T02:37:41.369Z,101331.89
2018-08-28T02:40:45.589Z,101329.36
2018-08-28T02:43:49.808Z,101321.86
2018-08-28T02:46:54.049Z,101330.27
2018-08-28T02:49:58.246Z,101329.06
2018-08-28T02:53:02.496Z,101339.58
2018-08-28T02:56:06.776Z,101342.52
2018-08-28T02:59:11.024Z,101343.99
2018-08-28T03:02:15.265Z,101350.81
2018-08-28T03:05:19.513Z,101349.96
2018-08-28T03:08:23.772Z,101354.28
2018-08-28T03:11:28.013Z,101358.27
2018-08-28T03:14:32.270Z,101361.22
2018-08-28T03:17:36.501Z,101362.22
2018-08-28T03:20:40.732Z,101365.39
2018-08-28T03:23:44.961Z,101374.02
2018-08-28T03:26:49.169Z,101375.27
2018-08-28T03:29:53.406Z,101377.48
2018-08-28T03:32:57.672Z,101376.02
2018-08-28T03:36:01.912Z,101378.45
2018-08-28T03:39:06.938Z,101374.80
2018-08-28T03:42:11.185Z,101378.20
2018-08-28T03:45:15.441Z,101387.04
2018-08-28T03:48:19.665Z,101389.06
2018-08-28T03:51:23.992Z,101395.77
2018-08-28T03:54:28.290Z,101398.34
2018-08-28T03:57:32.489Z,101389.44
2018-08-28T04:00:36.726Z,101396.47
2018-08-28T04:03:40.966Z,101397.76
2018-08-28T04:06:45.196Z,101402.06
2018-08-28T04:09:49.412Z,101412.34
2018-08-28T04:12:53.630Z,101416.34
2018-08-28T04:15:58.041Z,101411.34
2018-08-28T04:19:02.284Z,101420.24
2018-08-28T04:22:06.497Z,101427.05
2018-08-28T04:25:10.721Z,101432.23
2018-08-28T04:28:14.985Z,101425.64
2018-08-28T04:31:19.208Z,101432.75
2018-08-28T04:34:23.419Z,101432.16
2018-08-28T04:37:27.632Z,101440.55
2018-08-28T04:40:31.849Z,101440.21
2018-08-28T04:43:36.102Z,101438.77
2018-08-28T04:46:40.322Z,101444.52
2018-08-28T04:49:44.528Z,101437.70
2018-08-28T04:52:48.745Z,101442.52
2018-08-28T04:55:53.011Z,101449.88
2018-08-28T04:58:57.266Z,101446.31
2018-08-28T05:02:01.485Z,101451.24
2018-08-28T05:05:09.077Z,101456.14
2018-08-28T05:08:13.277Z,101459.71
2018-08-28T05:11:17.501Z,101467.66
2018-08-28T05:14:21.711Z,101467.45
2018-08-28T05:17:25.912Z,101468.38
2018-08-28T05:20:30.134Z,101474.53
2018-08-28T05:23:34.359Z,101477.37
2018-08-28T05:26:38.658Z,101474.51
2018-08-28T05:29:42.958Z,101481.59
2018-08-28T05:32:47.097Z,101486.39
2018-08-28T05:35:51.296Z,101484.37
2018-08-28T05:38:55.537Z,101493.06
2018-08-28T05:41:59.729Z,101497.20
2018-08-28T05:45:03.933Z,101495.70
2018-08-28T05:48:08.624Z,101502.19
2018-08-28T05:51:12.853Z,101495.52
2018-08-28T05:54:17.048Z,101502.41
2018-08-28T05:57:21.297Z,101504.07
2018-08-28T06:00:25.525Z,101506.38
2018-08-28T06:03:29.773Z,101507.48
2018-08-28T06:06:33.962Z,101504.44
2018-08-28T06:09:38.219Z,101517.73
2018-08-28T06:12:42.456Z,101512.23
2018-08-28T06:15:46.673Z,101507.51
2018-08-28T06:18:50.891Z,101512.75
2018-08-28T06:21:55.086Z,101513.14
2018-08-28T06:24:59.285Z,101512.85
2018-08-28T06:28:03.608Z,101511.09
2018-08-28T06:31:07.821Z,101507.22
2018-08-28T06:34:12.052Z,101511.86
2018-08-28T06:37:16.324Z,101509.58
2018-08-28T06:40:20.540Z,101516.86
2018-08-28T06:43:24.784Z,101515.94
2018-08-28T06:46:28.992Z,101523.11
2018-08-28T06:49:33.252Z,101517.00
2018-08-28T06:52:37.600Z,101531.03
2018-08-28T06:55:41.813Z,101523.64
2018-08-28T06:58:46.021Z,101527.45
2018-08-28T07:01:50.233Z,101526.08
2018-08-28T07:04:54.453Z,101527.67
2018-08-28T07:07:58.726Z,101538.47
2018-08-28T07:11:02.924Z,101536.97
2018-08-28T07:14:07.119Z,101542.27
2018-08-28T07:17:11.357Z,101539.46
2018-08-28T07:20:15.584Z,101544.39
2018-08-28T07:23:19.826Z,101552.49
2018-08-28T07:26:24.040Z,101548.08
2018-08-28T07:29:28.417Z,101549.36
2018-08-28T07:32:32.665Z,101555.45
2018-08-28T07:35:36.889Z,101553.97
2018-08-28T07:38:41.108Z,101554.76
2018-08-28T07:41:45.413Z,101558.42
2018-08-28T07:44:49.709Z,101567.64
2018-08-28T07:47:53.854Z,101566.41
2018-08-28T07:50:58.067Z,101573.69
2018-08-28T07:54:02.297Z,101568.44
2018-08-28T07:57:06.524Z,101573.75
2018-08-28T08:00:10.737Z,101576.20
2018-08-28T08:03:18.328Z,101574.58
2018-08-28T08:06:22.541Z,101583.69
2018-08-28T08:09:26.753Z,101575.96
2018-08-28T08:12:30.957Z,101581.96
2018-08-28T08:15:35.197Z,101573.55
2018-08-28T08:18:39.416Z,101571.66
2018-08-28T08:21:43.651Z,101581.03
2018-08-28T08:24:47.874Z,101588.58
2018-08-28T08:27:52.144Z,101593.58
2018-08-28T08:30:56.345Z,101594.47
2018-08-28T08:34:00.602Z,101599.79
2018-08-28T08:37:04.890Z,101600.41
2018-08-28T08:40:09.098Z,101600.76
2018-08-28T08:43:13.353Z,101601.34
2018-08-28T08:46:17.562Z,101605.53
2018-08-28T08:49:21.797Z,101607.07
2018-08-28T08:52:25.977Z,101610.30
2018-08-28T08:55:30.206Z,101618.92
2018-08-28T08:58:34.413Z,101616.67
2018-08-28T09:01:38.729Z,101623.36
2018-08-28T09:04:43.015Z,101621.20
2018-08-28T09:07:47.338Z,101621.79
2018-08-28T09:10:51.585Z,101625.72
2018-08-28T09:13:55.853Z,101621.91
2018-08-28T09:17:00.098Z,101623.18
2018-08-28T09:20:04.385Z,101626.05
2018-08-28T09:23:08.635Z,101628.59
2018-08-28T09:26:12.853Z,101625.05
2018-08-28T09:29:17.116Z,101632.25
2018-08-28T09:32:21.461Z,101633.63
2018-08-28T09:35:25.706Z,101632.05
2018-08-28T09:38:30.139Z,101633.45
2018-08-28T09:41:34.310Z,101629.98
2018-08-28T09:44:38.513Z,101631.70
2018-08-28T09:47:42.743Z,101630.63
2018-08-28T09:50:47.077Z,101628.62
2018-08-28T09:53:51.243Z,101641.13
2018-08-28T09:56:55.678Z,101643.36
2018-08-28T10:00:00.011Z,101645.53
2018-08-28T10:03:04.244Z,101644.38
2018-08-28T10:06:08.517Z,101649.95
2018-08-28T10:09:17.813Z,101643.98
2018-08-28T10:12:22.045Z,101648.84
2018-08-28T10:15:26.319Z,101658.05
2018-08-28T10:18:30.580Z,101659.92
2018-08-28T10:21:34.869Z,101665.48
2018-08-28T10:24:39.105Z,101662.80
2018-08-28T10:27:43.346Z,101665.56
2018-08-28T10:30:47.622Z,101666.91
2018-08-28T10:33:51.961Z,101672.70
2018-08-28T10:36:56.181Z,101665.34
2018-08-28T10:40:00.493Z,101675.10
2018-08-28T10:43:04.885Z,101667.45
2018-08-28T10:46:09.246Z,101674.56
2018-08-28T10:49:13.498Z,101672.84
2018-08-28T10:52:17.753Z,101679.75
2018-08-28T10:55:22.015Z,101683.86
2018-08-28T10:58:26.412Z,101688.80
2018-08-28T11:01:30.680Z,101692.10
2018-08-28T11:04:34.978Z,101686.35
2018-08-28T11:07:39.234Z,101697.47
2018-08-28T11:10:43.449Z,101698.89
2018-08-28T11:13:47.671Z,101710.75
2018-08-28T11:16:51.913Z,101704.64
2018-08-28T11:19:56.841Z,101709.86
2018-08-28T11:23:01.179Z,101710.36
2018-08-28T11:26:05.330Z,101711.75
2018-08-28T11:29:09.562Z,101716.73
2018-08-28T11:32:13.762Z,101721.49
2018-08-28T11:35:17.987Z,101721.33
2018-08-28T11:38:22.195Z,101713.64
2018-08-28T11:41:26.397Z,101719.53
2018-08-28T11:44:30.618Z,101725.84
2018-08-28T11:47:34.834Z,101733.49
2018-08-28T11:50:39.049Z,101731.23
2018-08-28T11:53:43.261Z,101727.93
2018-08-28T11:56:47.443Z,101726.58
2018-08-28T11:59:51.665Z,101726.34
2018-08-28T12:02:55.897Z,101738.78
2018-08-28T12:06:00.122Z,101739.28
2018-08-28T12:09:05.655Z,101738.45
2018-08-28T12:12:09.877Z,101737.91
2018-08-28T12:15:14.124Z,101739.63
2018-08-28T12:18:18.325Z,101734.37
2018-08-28T12:21:22.539Z,101729.08
2018-08-28T12:24:26.769Z,101731.03
2018-08-28T12:27:31.012Z,101733.34
2018-08-28T12:30:35.245Z,101736.41
2018-08-28T12:33:39.441Z,101731.42
2018-08-28T12:36:43.693Z,101730.63
2018-08-28T12:39:47.889Z,101733.94
2018-08-28T12:42:52.113Z,101732.50
2018-08-28T12:45:56.312Z,101732.14
2018-08-28T12:49:00.537Z,101738.17
2018-08-28T12:52:04.770Z,101734.30
2018-08-28T12:55:09.088Z,101750.91
2018-08-28T12:58:13.217Z,101737.94
2018-08-28T13:01:17.468Z,101740.77
2018-08-28T13:04:21.674Z,101741.09
2018-08-28T13:07:26.076Z,101740.25
2018-08-28T13:10:30.121Z,101740.04
2018-08-28T13:13:34.403Z,101740.06
2018-08-28T13:16:38.624Z,101751.94
2018-08-28T13:19:42.853Z,101740.85
2018-08-28T13:22:47.048Z,101744.19
2018-08-28T13:25:51.268Z,101744.48
2018-08-28T13:28:55.477Z,101738.14
2018-08-28T13:31:59.706Z,101743.70
2018-08-28T13:35:03.929Z,101733.72
2018-08-28T13:38:08.173Z,101740.88
2018-08-28T13:41:12.409Z,101748.58
2018-08-28T13:44:16.600Z,101747.14
2018-08-28T13:47:20.838Z,101749.02
2018-08-28T13:50:25.053Z,101750.41
2018-08-28T13:53:29.263Z,101753.64
2018-08-28T13:56:33.505Z,101758.59
2018-08-28T13:59:37.745Z,101755.56
2018-08-28T14:02:41.982Z,101758.05
2018-08-28T14:05:46.231Z,101756.63
2018-08-28T14:08:50.438Z,101762.70
2018-08-28T14:11:54.634Z,101761.81
2018-08-28T14:14:58.956Z,101771.44
2018-08-28T14:18:03.057Z,101769.42
2018-08-28T14:21:07.284Z,101760.02
2018-08-28T14:24:11.554Z,101767.20
2018-08-28T14:27:15.754Z,101767.69
2018-08-28T14:30:19.953Z,101773.42
2018-08-28T14:33:24.313Z,101766.19
2018-08-28T14:36:28.615Z,101770.24
2018-08-28T14:39:32.870Z,101764.72
2018-08-28T14:42:37.123Z,101768.86
2018-08-28T14:45:41.513Z,101764.94
2018-08-28T14:48:45.746Z,101770.97
2018-08-28T14:51:49.961Z,101764.88
2018-08-28T14:54:54.166Z,101764.88
2018-08-28T14:57:58.397Z,101764.30
2018-08-28T15:01:02.669Z,101764.59
2018-08-28T15:04:06.903Z,101764.80
2018-08-28T15:07:11.165Z,101756.73
2018-08-28T15:10:15.325Z,101757.31
2018-08-28T15:13:19.521Z,101753.13
2018-08-28T15:16:23.752Z,101762.20
2018-08-28T15:19:27.959Z,101760.47
2018-08-28T15:22:32.333Z,101757.59
2018-08-28T15:25:36.521Z,101760.88
2018-08-28T15:28:40.708Z,101762.23
2018-08-28T15:31:44.916Z,101761.39
2018-08-28T15:34:49.113Z,101761.27
2018-08-28T15:37:53.302Z,101761.27
2018-08-28T15:40:57.717Z,101756.53
2018-08-28T15:44:01.969Z,101752.39
2018-08-28T15:47:06.562Z,101755.67
2018-08-28T15:50:10.782Z,101756.00
2018-08-28T15:53:14.996Z,101755.72
2018-08-28T15:56:19.210Z,101761.25
2018-08-28T15:59:23.433Z,101759.59
2018-08-28T16:02:27.653Z,101755.60
2018-08-28T16:05:31.852Z,101753.93
2018-08-28T16:08:36.091Z,101753.97
2018-08-28T16:11:40.290Z,101756.17
2018-08-28T16:14:44.498Z,101753.69
2018-08-28T16:17:48.728Z,101751.17
2018-08-28T16:20:52.920Z,101752.70
2018-08-28T16:23:57.158Z,101753.50
2018-08-28T16:27:01.350Z,101750.16
2018-08-28T16:30:05.788Z,101750.12
2018-08-28T16:33:10.025Z,101746.78
2018-08-28T16:36:14.279Z,101754.80
2018-08-28T16:39:18.517Z,101753.34
2018-08-28T16:42:22.726Z,101750.56
2018-08-28T16:45:26.937Z,101755.23
2018-08-28T16:48:31.256Z,101747.77
2018-08-28T16:51:35.399Z,101751.62
2018-08-28T16:54:39.607Z,101754.72
2018-08-28T16:57:43.777Z,101760.48
2018-08-28T17:00:47.997Z,101753.27
2018-08-28T17:03:52.217Z,101757.38
2018-08-28T17:06:56.413Z,101755.98
2018-08-28T17:10:00.620Z,101757.82
2018-08-28T17:13:04.863Z,101766.09
2018-08-28T17:16:09.094Z,101760.22
2018-08-28T17:19:13.327Z,101761.78
2018-08-28T17:22:17.564Z,101753.21
2018-08-28T17:25:21.965Z,101756.25
2018-08-28T17:28:26.233Z,101750.66
2018-08-28T17:31:30.416Z,101751.17
2018-08-28T17:34:34.663Z,101754.16
2018-08-28T17:37:38.861Z,101759.07
2018-08-28T17:40:43.045Z,101757.67
2018-08-28T17:43:47.276Z,101755.95
2018-08-28T17:46:51.458Z,101754.52
2018-08-28T17:49:55.688Z,101754.41
2018-08-28T17:52:59.971Z,101751.63
2018-08-28T17:56:04.216Z,101752.42
2018-08-28T17:59:08.410Z,101754.24
2018-08-28T18:02:12.625Z,101762.75
2018-08-28T18:05:16.830Z,101764.12
2018-08-28T18:08:21.033Z,101762.66
2018-08-28T18:11:25.220Z,101768.11
2018-08-28T18:14:29.429Z,101765.30
2018-08-28T18:17:33.654Z,101770.48
2018-08-28T18:20:37.831Z,101776.80
2018-08-28T18:23:42.085Z,101775.96
2018-08-28T18:26:46.290Z,101778.94
2018-08-28T18:29:50.530Z,101783.50
2018-08-28T18:32:54.729Z,101782.87
2018-08-28T18:35:59.002Z,101777.27
2018-08-28T18:39:03.217Z,101781.65
2018-08-28T18:42:07.490Z,101790.47
2018-08-28T18:45:11.697Z,101788.14
2018-08-28T18:48:15.923Z,101793.86
2018-08-28T18:51:20.113Z,101794.05
2018-08-28T18:54:24.315Z,101799.51
2018-08-28T18:57:28.508Z,101791.75
2018-08-28T19:00:32.758Z,101792.81
2018-08-28T19:03:36.954Z,101793.55
2018-08-28T19:06:41.190Z,101794.37
2018-08-28T19:09:45.376Z,101790.48
2018-08-28T19:12:49.596Z,101789.64
2018-08-28T19:15:54.049Z,101790.42
2018-08-28T19:18:58.268Z,101785.42
2018-08-28T19:22:02.491Z,101788.38
2018-08-28T19:25:06.717Z,101791.62
2018-08-28T19:28:10.961Z,101790.17
2018-08-28T19:31:15.173Z,101788.45
2018-08-28T19:34:19.399Z,101791.69
2018-08-28T19:37:23.965Z,101799.36
2018-08-28T19:40:28.181Z,101793.48
2018-08-28T19:43:32.419Z,101788.72
2018-08-28T19:46:36.638Z,101785.66
2018-08-28T19:49:40.850Z,101778.50
2018-08-28T19:52:45.040Z,101779.28
2018-08-28T19:55:49.264Z,101786.39
2018-08-28T19:58:53.458Z,101779.73
2018-08-28T20:01:57.669Z,101778.31
2018-08-28T20:05:01.914Z,101775.25
2018-08-28T20:08:06.221Z,101776.34
2018-08-28T20:11:10.437Z,101773.84
2018-08-28T20:14:14.620Z,101772.70
2018-08-28T20:17:18.852Z,101772.95
2018-08-28T20:20:23.054Z,101766.61
2018-08-28T20:23:27.278Z,101762.73
2018-08-28T20:26:31.521Z,101762.45
2018-08-28T20:29:35.755Z,101758.02
2018-08-28T20:32:39.950Z,101763.27
2018-08-28T20:35:44.152Z,101764.08
2018-08-28T20:38:48.328Z,101773.05
2018-08-28T20:41:52.609Z,101766.06
2018-08-28T20:44:56.779Z,101750.24
2018-08-28T20:48:00.991Z,101750.73
2018-08-28T20:51:05.541Z,101753.23
2018-08-28T20:54:09.829Z,101761.95
2018-08-28T20:57:14.012Z,101759.34
2018-08-28T21:00:18.246Z,101758.45
2018-08-28T21:03:22.493Z,101746.41
2018-08-28T21:06:26.771Z,101740.03
2018-08-28T21:09:30.953Z,101743.72
2018-08-28T21:12:35.223Z,101734.83
2018-08-28T21:15:39.377Z,101734.42
2018-08-28T21:18:43.601Z,101733.50
2018-08-28T21:21:47.809Z,101729.78
2018-08-28T21:24:52.005Z,101728.32
2018-08-28T21:27:56.240Z,101725.66
2018-08-28T21:31:00.436Z,101729.13
2018-08-28T21:34:04.623Z,101731.14
2018-08-28T21:37:08.817Z,101727.69
2018-08-28T21:40:13.062Z,101735.95
2018-08-28T21:43:17.280Z,101736.33
2018-08-28T21:46:21.505Z,101734.45
2018-08-28T21:49:25.701Z,101732.89
2018-08-28T21:52:29.926Z,101737.58
2018-08-28T21:55:34.121Z,101742.63
2018-08-28T21:58:38.360Z,101736.72
2018-08-28T22:01:42.577Z,101739.38
2018-08-28T22:04:46.777Z,101741.16
2018-08-28T22:07:55.108Z,101744.31
2018-08-28T22:10:59.306Z,101745.92
2018-08-28T22:14:03.588Z,101747.28
2018-08-28T22:17:07.826Z,101743.36
2018-08-28T22:20:12.045Z,101747.75
2018-08-28T22:23:16.254Z,101747.37
2018-08-28T22:26:20.474Z,101746.47
2018-08-28T22:29:24.676Z,101755.14
2018-08-28T22:32:28.897Z,101755.61
2018-08-28T22:35:33.121Z,101754.41
2018-08-28T22:38:37.300Z,101755.10
2018-08-28T22:41:41.533Z,101750.28
2018-08-28T22:44:45.730Z,101759.28
2018-08-28T22:47:49.941Z,101765.22
2018-08-28T22:50:54.137Z,101757.98
2018-08-28T22:53:58.418Z,101755.19
2018-08-28T22:57:02.613Z,101756.17
2018-08-28T23:00:07.473Z,101747.52
2018-08-28T23:03:11.652Z,101749.63
2018-08-28T23:06:15.857Z,101753.67
2018-08-28T23:09:20.057Z,101747.81
2018-08-28T23:12:24.308Z,101739.44
2018-08-28T23:15:28.513Z,101741.89
2018-08-28T23:18:32.765Z,101736.78
2018-08-28T23:21:36.950Z,101744.92
2018-08-28T23:24:41.141Z,101740.95
2018-08-28T23:27:45.350Z,101735.64
2018-08-28T23:30:49.588Z,101738.59
2018-08-28T23:33:53.770Z,101729.48
2018-08-28T23:36:57.968Z,101727.95
2018-08-28T23:40:02.166Z,101728.86
2018-08-28T23:43:07.424Z,101730.91
2018-08-28T23:46:11.640Z,101730.28
2018-08-28T23:49:15.829Z,101732.11
2018-08-28T23:52:20.037Z,101733.08
2018-08-28T23:55:24.325Z,101732.94
2018-08-28T23:58:28.541Z,101733.03
